Time;durP1;ratioP1;P1;durP2;ratioP2;P2;SDS_P1;SDS_P2;PMS_P1;PMS_P2;Temp;Humidity;BMP_temperature;BMP_pressure;BME280_temperature;BME280_humidity;BME280_pressure;Samples;Min_cycle;Max_cycle;Signal;HPM_P1;HPM_P2
2021/04/08 00:01:57;;;;;;;9.55;1.52;;;3.10;91.00;;;;;;5045701;28;20389;-71
2021/04/08 00:04:23;;;;;;;14.35;2.15;;;3.10;91.20;;;;;;5046686;28;20605;-70
2021/04/08 00:06:49;;;;;;;10.13;2.03;;;3.10;91.30;;;;;;5045301;28;20114;-71
2021/04/08 00:09:15;;;;;;;10.38;1.73;;;3.10;91.20;;;;;;5031892;28;20039;-70
2021/04/08 00:11:40;;;;;;;15.15;2.33;;;3.10;91.10;;;;;;5048614;28;20482;-70
2021/04/08 00:14:06;;;;;;;25.40;3.13;;;3.10;91.10;;;;;;5049668;28;20037;-70
2021/04/08 00:16:32;;;;;;;15.35;2.42;;;3.10;90.90;;;;;;5048750;28;20021;-71
2021/04/08 00:18:57;;;;;;;15.10;2.33;;;3.10;91.00;;;;;;5049514;28;20033;-70
2021/04/08 00:21:23;;;;;;;17.88;3.00;;;3.20;90.80;;;;;;5047544;28;20033;-70
2021/04/08 00:23:49;;;;;;;13.82;2.55;;;3.20;90.80;;;;;;5046835;28;20500;-70
2021/04/08 00:26:14;;;;;;;16.20;2.20;;;3.20;90.70;;;;;;5047806;28;20111;-71
2021/04/08 00:28:40;;;;;;;13.00;2.85;;;3.20;90.60;;;;;;5049423;28;20490;-70
2021/04/08 00:31:06;;;;;;;15.85;2.35;;;3.30;90.70;;;;;;5049433;28;20025;-71
2021/04/08 00:33:32;;;;;;;17.17;2.63;;;3.20;90.70;;;;;;5049624;28;20122;-70
2021/04/08 00:35:57;;;;;;;19.05;2.28;;;3.20;90.70;;;;;;5048676;28;20123;-70
2021/04/08 00:38:23;;;;;;;15.75;2.53;;;3.20;90.70;;;;;;5047169;28;20021;-71
2021/04/08 00:40:49;;;;;;;16.90;2.88;;;3.20;90.70;;;;;;5032949;28;20047;-70
2021/04/08 00:43:15;;;;;;;24.88;3.58;;;3.20;90.80;;;;;;5050574;28;20389;-71
2021/04/08 00:45:40;;;;;;;22.15;2.78;;;3.20;91.20;;;;;;5054091;28;20035;-71
2021/04/08 00:48:06;;;;;;;27.70;2.63;;;3.20;90.60;;;;;;5052461;28;20037;-70
2021/04/08 00:50:32;;;;;;;24.92;2.88;;;3.30;90.40;;;;;;5054230;28;20101;-70
2021/04/08 00:53:00;;;;;;;17.73;2.88;;;3.30;90.40;;;;;;5053592;28;20029;-70
2021/04/08 00:55:32;;;;;;;18.27;2.70;;;3.30;90.50;;;;;;5053714;28;20043;-70
2021/04/08 00:58:01;;;;;;;15.40;2.38;;;3.30;90.40;;;;;;5053104;28;20398;-70
2021/04/08 01:00:27;;;;;;;14.82;2.40;;;3.20;90.50;;;;;;5034532;28;20029;-70
2021/04/08 01:02:53;;;;;;;17.33;2.78;;;3.20;90.40;;;;;;5049029;28;20029;-70
2021/04/08 01:05:19;;;;;;;10.77;2.00;;;3.20;90.20;;;;;;5052432;28;20021;-70
2021/04/08 01:07:44;;;;;;;17.25;2.97;;;3.20;90.30;;;;;;5050981;28;20511;-70
2021/04/08 01:10:11;;;;;;;19.13;2.60;;;3.20;90.10;;;;;;5052844;28;20753;-71
2021/04/08 01:12:38;;;;;;;14.65;2.10;;;3.20;90.40;;;;;;5052292;28;20140;-71
2021/04/08 01:15:05;;;;;;;9.60;1.77;;;3.30;90.30;;;;;;5052521;28;20051;-70
2021/04/08 01:17:47;;;;;;;19.83;2.20;;;3.20;90.40;;;;;;5052176;28;20032;-70
2021/04/08 01:20:42;;;;;;;12.85;1.98;;;3.20;90.40;;;;;;5050083;28;20060;-70
2021/04/08 01:23:45;;;;;;;12.20;1.95;;;3.20;90.20;;;;;;5051990;28;20033;-71
2021/04/08 01:26:35;;;;;;;12.32;1.92;;;3.30;89.50;;;;;;5052705;28;20021;-70
2021/04/08 01:29:27;;;;;;;10.73;2.05;;;3.30;90.00;;;;;;5050813;28;20068;-71
2021/04/08 01:31:54;;;;;;;12.07;2.10;;;3.20;89.30;;;;;;5051016;28;20025;-71
2021/04/08 01:34:23;;;;;;;14.98;2.15;;;3.20;89.60;;;;;;5053009;28;20036;-71
2021/04/08 01:36:54;;;;;;;11.25;2.15;;;3.20;89.50;;;;;;5052446;28;20043;-70
2021/04/08 01:39:22;;;;;;;18.02;2.25;;;3.20;90.00;;;;;;5051883;28;20109;-71
2021/04/08 01:41:49;;;;;;;15.68;2.17;;;3.20;90.00;;;;;;5035084;28;21780;-71
2021/04/08 01:44:20;;;;;;;15.63;1.98;;;3.20;88.90;;;;;;5051890;28;20037;-71
2021/04/08 01:46:51;;;;;;;14.35;2.00;;;3.30;88.50;;;;;;5051597;28;20083;-71
2021/04/08 01:49:18;;;;;;;14.82;2.00;;;3.30;88.50;;;;;;5050306;28;20532;-70
2021/04/08 01:51:45;;;;;;;13.15;2.00;;;3.40;88.40;;;;;;5051673;28;20041;-70
2021/04/08 01:54:12;;;;;;;12.93;1.88;;;3.40;88.80;;;;;;5050997;28;20032;-70
2021/04/08 01:56:40;;;;;;;12.77;1.95;;;3.40;89.40;;;;;;5049310;28;20458;-69
2021/04/08 01:59:07;;;;;;;9.02;2.30;;;3.30;90.00;;;;;;5052599;28;20039;-70
2021/04/08 02:01:34;;;;;;;11.55;1.85;;;3.30;90.30;;;;;;5052557;28;20025;-70
2021/04/08 02:04:02;;;;;;;13.70;1.50;;;3.20;90.20;;;;;;5047761;28;20417;-71
2021/04/08 02:06:32;;;;;;;11.15;1.40;;;3.20;90.20;;;;;;5048162;28;20029;-70
2021/04/08 02:08:59;;;;;;;13.27;1.48;;;3.10;90.20;;;;;;5051854;28;20043;-70
2021/04/08 02:11:26;;;;;;;11.68;1.63;;;3.10;90.30;;;;;;5048852;28;20040;-70
2021/04/08 02:13:55;;;;;;;12.05;2.30;;;3.00;90.00;;;;;;5052061;28;20395;-70
2021/04/08 02:16:21;;;;;;;10.18;1.50;;;3.00;89.50;;;;;;5052179;28;20037;-70
2021/04/08 02:18:52;;;;;;;7.63;1.33;;;3.00;90.00;;;;;;5049467;28;20111;-70
2021/04/08 02:21:20;;;;;;;12.07;1.45;;;3.00;89.60;;;;;;5050732;28;20043;-70
2021/04/08 02:23:48;;;;;;;10.80;1.52;;;3.00;89.50;;;;;;5051806;28;20029;-70
2021/04/08 02:26:17;;;;;;;8.52;1.20;;;3.00;90.00;;;;;;5051157;28;20021;-69
2021/04/08 02:28:43;;;;;;;8.88;1.52;;;3.00;90.00;;;;;;5052989;28;20541;-72
2021/04/08 02:31:09;;;;;;;11.15;2.53;;;2.90;90.40;;;;;;5054129;28;20107;-72
2021/04/08 02:33:36;;;;;;;11.43;2.10;;;2.90;90.60;;;;;;5050677;28;20029;-72
2021/04/08 02:36:02;;;;;;;10.07;1.33;;;2.90;90.60;;;;;;5028731;28;20639;-72
2021/04/08 02:38:30;;;;;;;13.38;1.38;;;2.90;90.70;;;;;;5051709;28;20045;-72
2021/04/08 02:40:58;;;;;;;12.57;1.50;;;3.00;90.60;;;;;;5052323;28;20146;-69
2021/04/08 02:43:24;;;;;;;11.73;2.08;;;3.00;90.60;;;;;;5051392;28;20120;-72
2021/04/08 02:45:50;;;;;;;16.27;2.08;;;2.90;90.40;;;;;;5052229;28;20108;-72
2021/04/08 02:48:18;;;;;;;15.93;2.38;;;3.00;90.60;;;;;;5051743;28;20028;-69
2021/04/08 02:50:50;;;;;;;9.10;1.77;;;2.90;90.60;;;;;;5043620;28;20350;-72
2021/04/08 02:53:43;;;;;;;10.68;2.03;;;2.90;90.60;;;;;;5052055;28;20033;-72
2021/04/08 02:56:16;;;;;;;8.18;2.38;;;2.90;90.30;;;;;;5050153;28;20029;-71
2021/04/08 02:58:44;;;;;;;8.52;2.35;;;2.90;90.30;;;;;;5051091;28;20032;-71
2021/04/08 03:01:17;;;;;;;14.77;1.85;;;2.90;90.50;;;;;;5049883;28;20040;-72
2021/04/08 03:03:50;;;;;;;10.70;1.55;;;2.80;90.70;;;;;;5051510;28;20032;-70
2021/04/08 03:06:16;;;;;;;7.93;1.38;;;2.80;90.40;;;;;;5049282;28;20102;-70
2021/04/08 03:08:44;;;;;;;11.00;1.48;;;2.80;90.40;;;;;;5048433;28;20040;-70
2021/04/08 03:11:12;;;;;;;9.02;1.45;;;2.80;90.40;;;;;;5050515;28;20106;-70
2021/04/08 03:13:42;;;;;;;13.82;1.50;;;2.80;90.40;;;;;;5049658;28;20986;-69
2021/04/08 03:16:17;;;;;;;13.38;1.58;;;2.80;90.20;;;;;;5032987;28;20028;-70
2021/04/08 03:18:47;;;;;;;10.90;1.58;;;2.70;90.30;;;;;;5051388;28;20029;-70
2021/04/08 03:21:13;;;;;;;7.32;1.13;;;2.70;90.20;;;;;;5051196;28;20057;-70
2021/04/08 03:23:40;;;;;;;8.32;1.60;;;2.80;90.10;;;;;;5051630;28;20507;-70
2021/04/08 03:26:09;;;;;;;17.13;2.15;;;2.70;90.10;;;;;;5050777;28;20049;-70
2021/04/08 03:28:37;;;;;;;8.52;1.35;;;2.70;90.00;;;;;;5050287;28;20106;-70
2021/04/08 03:31:05;;;;;;;8.10;1.20;;;2.70;90.30;;;;;;5050503;28;20044;-70
2021/04/08 03:33:34;;;;;;;10.82;1.58;;;2.70;90.30;;;;;;5050928;28;20808;-71
2021/04/08 03:36:02;;;;;;;4.35;1.20;;;2.60;90.40;;;;;;5051368;28;20036;-70
2021/04/08 03:38:30;;;;;;;10.65;1.10;;;2.60;90.40;;;;;;5048734;28;20029;-70
2021/04/08 03:41:00;;;;;;;10.70;1.38;;;2.60;90.60;;;;;;5048034;28;20064;-71
2021/04/08 03:43:26;;;;;;;10.30;1.60;;;2.60;90.60;;;;;;5049347;28;20032;-70
2021/04/08 03:45:56;;;;;;;6.53;1.08;;;2.60;90.70;;;;;;5050694;28;20104;-70
2021/04/08 03:48:22;;;;;;;10.77;1.45;;;2.60;90.50;;;;;;5032123;28;20032;-71
2021/04/08 03:50:49;;;;;;;9.13;2.03;;;2.60;90.70;;;;;;5032502;28;20037;-71
2021/04/08 03:53:17;;;;;;;7.97;1.42;;;2.60;90.90;;;;;;5050905;28;20478;-71
2021/04/08 03:55:43;;;;;;;19.52;1.92;;;2.60;90.90;;;;;;5031482;28;20017;-70
2021/04/08 03:58:11;;;;;;;7.65;1.05;;;2.60;91.00;;;;;;5030270;28;20036;-70
2021/04/08 04:00:38;;;;;;;11.73;1.40;;;2.50;91.00;;;;;;5048358;28;20025;-70
2021/04/08 04:03:07;;;;;;;8.40;1.70;;;2.50;91.20;;;;;;5048756;28;20040;-70
2021/04/08 04:05:33;;;;;;;9.00;1.75;;;2.60;91.30;;;;;;5050549;28;20033;-70
2021/04/08 04:08:00;;;;;;;15.30;1.80;;;2.60;91.30;;;;;;5046707;28;20057;-70
2021/04/08 04:10:26;;;;;;;10.35;1.73;;;2.60;91.40;;;;;;5048090;28;20025;-70
2021/04/08 04:12:55;;;;;;;16.77;2.25;;;2.60;91.40;;;;;;5049408;28;20317;-70
2021/04/08 04:15:21;;;;;;;14.32;2.03;;;2.60;91.50;;;;;;5046828;28;20033;-70
2021/04/08 04:17:48;;;;;;;14.48;2.35;;;2.60;91.40;;;;;;5049108;28;20592;-70
2021/04/08 04:20:15;;;;;;;14.07;1.55;;;2.60;91.40;;;;;;5049729;28;20075;-70
2021/04/08 04:22:42;;;;;;;16.25;1.75;;;2.60;91.40;;;;;;5029475;28;20102;-71
2021/04/08 04:25:10;;;;;;;14.30;2.08;;;2.70;91.30;;;;;;5049873;28;20509;-71
2021/04/08 04:27:36;;;;;;;14.73;2.28;;;2.70;91.40;;;;;;5049689;28;20108;-72
2021/04/08 04:30:04;;;;;;;15.40;3.10;;;2.70;91.40;;;;;;5045461;28;20510;-71
2021/04/08 04:32:30;;;;;;;16.85;1.75;;;2.80;91.00;;;;;;5049158;28;20021;-71
2021/04/08 04:34:55;;;;;;;9.70;1.60;;;2.80;91.00;;;;;;5049255;28;20538;-70
2021/04/08 04:37:21;;;;;;;20.60;2.33;;;2.70;91.00;;;;;;5048595;28;20102;-70
2021/04/08 04:39:47;;;;;;;16.17;1.58;;;2.70;90.80;;;;;;5048994;28;20032;-71
2021/04/08 04:42:13;;;;;;;14.65;2.08;;;2.70;91.00;;;;;;5050067;28;20079;-70
2021/04/08 04:44:39;;;;;;;11.48;1.88;;;2.70;91.10;;;;;;5048682;28;20029;-71
2021/04/08 04:47:05;;;;;;;9.32;2.55;;;2.70;91.20;;;;;;5050343;28;20115;-70
2021/04/08 04:49:31;;;;;;;13.18;1.45;;;2.60;91.30;;;;;;5047185;28;20034;-71
2021/04/08 04:51:56;;;;;;;12.07;1.77;;;2.60;91.30;;;;;;5047530;28;20036;-71
2021/04/08 04:54:22;;;;;;;9.35;2.05;;;2.60;91.30;;;;;;5050952;28;20083;-71
2021/04/08 04:56:48;;;;;;;9.77;2.20;;;2.60;91.30;;;;;;5046666;28;20037;-71
2021/04/08 04:59:14;;;;;;;11.38;1.50;;;2.60;91.20;;;;;;5048806;28;20033;-71
2021/04/08 05:01:40;;;;;;;12.45;2.00;;;2.60;91.20;;;;;;5048591;28;20412;-71
2021/04/08 05:04:05;;;;;;;7.13;1.55;;;2.70;90.80;;;;;;5049965;28;20379;-72
2021/04/08 05:06:34;;;;;;;19.30;1.73;;;2.70;91.00;;;;;;5049647;28;20100;-71
2021/04/08 05:09:00;;;;;;;12.75;1.90;;;2.70;90.90;;;;;;5050114;28;20112;-71
2021/04/08 05:11:27;;;;;;;11.73;1.45;;;2.70;90.90;;;;;;5048585;28;20036;-72
2021/04/08 05:13:53;;;;;;;11.07;1.58;;;2.70;90.70;;;;;;5047010;28;20025;-71
2021/04/08 05:16:19;;;;;;;11.40;2.17;;;2.70;90.70;;;;;;5045904;28;20088;-71
2021/04/08 05:18:44;;;;;;;11.43;2.38;;;2.70;90.70;;;;;;5049166;28;20117;-71
2021/04/08 05:21:10;;;;;;;9.48;1.33;;;2.70;90.40;;;;;;5050063;28;20470;-72
2021/04/08 05:23:38;;;;;;;6.78;1.50;;;2.70;90.50;;;;;;5063102;22;20045;-68
2021/04/08 05:26:03;;;;;;;14.02;1.80;;;2.70;90.70;;;;;;5027619;28;20025;-69
2021/04/08 05:28:29;;;;;;;8.85;1.40;;;2.70;90.80;;;;;;5026901;28;20574;-68
2021/04/08 05:30:55;;;;;;;9.57;1.40;;;2.70;91.00;;;;;;5029515;28;20025;-68
2021/04/08 05:33:21;;;;;;;6.53;1.40;;;2.70;91.00;;;;;;5027081;28;20040;-67
2021/04/08 05:35:47;;;;;;;11.15;1.90;;;2.70;90.90;;;;;;5029647;28;20022;-68
2021/04/08 05:38:12;;;;;;;12.13;1.55;;;2.70;90.80;;;;;;5029854;28;20033;-67
2021/04/08 05:40:38;;;;;;;9.38;1.60;;;2.70;90.70;;;;;;5030520;28;20038;-68
2021/04/08 05:43:04;;;;;;;11.85;3.03;;;2.70;90.80;;;;;;5032954;28;20422;-73
2021/04/08 05:45:32;;;;;;;8.15;1.83;;;2.60;90.90;;;;;;5029778;28;20052;-69
2021/04/08 05:47:58;;;;;;;13.75;2.42;;;2.60;91.00;;;;;;5014136;28;20034;-69
2021/04/08 05:50:25;;;;;;;9.63;1.60;;;2.60;91.00;;;;;;5029909;28;20025;-69
2021/04/08 05:52:51;;;;;;;7.72;1.67;;;2.60;90.70;;;;;;5032719;28;20025;-70
2021/04/08 05:55:16;;;;;;;9.07;1.27;;;2.60;90.90;;;;;;5031942;28;20029;-69
2021/04/08 05:57:42;;;;;;;8.93;1.58;;;2.60;91.00;;;;;;5031227;28;20033;-69
2021/04/08 06:00:10;;;;;;;12.55;2.88;;;2.60;90.80;;;;;;5032166;28;20029;-69
2021/04/08 06:02:37;;;;;;;11.52;1.95;;;2.60;90.70;;;;;;5031606;28;20033;-69
2021/04/08 06:05:05;;;;;;;11.48;1.50;;;2.60;90.80;;;;;;5029754;28;20099;-69
2021/04/08 06:07:30;;;;;;;8.98;1.30;;;2.60;90.50;;;;;;5029071;28;20540;-68
2021/04/08 06:09:56;;;;;;;11.32;2.95;;;2.60;90.70;;;;;;5032391;28;20029;-69
2021/04/08 06:12:23;;;;;;;11.90;1.73;;;2.60;90.80;;;;;;5030051;28;20026;-69
2021/04/08 06:14:50;;;;;;;8.98;1.80;;;2.60;90.80;;;;;;5030301;28;20601;-70
2021/04/08 06:17:16;;;;;;;15.00;2.78;;;2.60;90.80;;;;;;5029001;28;20043;-68
2021/04/08 06:19:43;;;;;;;12.95;2.00;;;2.70;90.90;;;;;;5029486;28;20029;-68
2021/04/08 06:22:09;;;;;;;16.45;2.42;;;2.70;90.80;;;;;;5018369;28;20044;-69
2021/04/08 06:24:35;;;;;;;7.07;1.85;;;2.80;90.90;;;;;;5031689;28;20043;-68
2021/04/08 06:27:01;;;;;;;9.98;2.00;;;2.80;90.70;;;;;;5029268;28;20033;-69
2021/04/08 06:29:27;;;;;;;12.82;1.70;;;2.80;91.10;;;;;;5028629;28;20104;-70
2021/04/08 06:31:53;;;;;;;13.00;1.70;;;2.80;90.90;;;;;;5029882;28;20103;-69
2021/04/08 06:34:18;;;;;;;12.52;1.70;;;2.90;90.90;;;;;;5028906;28;20080;-71
2021/04/08 06:36:44;;;;;;;26.55;4.30;;;2.90;90.90;;;;;;5031061;28;20033;-70
2021/04/08 06:39:10;;;;;;;8.82;2.00;;;2.90;90.90;;;;;;5028890;28;20025;-70
2021/04/08 06:41:37;;;;;;;11.65;2.03;;;3.00;91.00;;;;;;5030050;28;20025;-70
2021/04/08 06:44:05;;;;;;;13.45;3.05;;;3.00;90.90;;;;;;5033560;28;20091;-73
2021/04/08 06:46:34;;;;;;;13.15;2.20;;;3.10;90.60;;;;;;5030821;28;20259;-72
2021/04/08 06:49:23;;;;;;;13.05;3.20;;;3.10;90.70;;;;;;5030228;28;20104;-73
2021/04/08 06:51:55;;;;;;;9.00;1.52;;;3.20;90.70;;;;;;5028698;28;20030;-71
2021/04/08 06:54:22;;;;;;;13.57;2.17;;;3.20;90.70;;;;;;5025624;28;20040;-72
2021/04/08 06:56:49;;;;;;;19.55;3.47;;;3.30;90.60;;;;;;5010368;28;20033;-71
2021/04/08 06:59:16;;;;;;;18.30;1.70;;;3.40;90.70;;;;;;5028386;28;20057;-71
2021/04/08 07:01:44;;;;;;;9.18;1.42;;;3.40;90.70;;;;;;5028853;28;20041;-72
2021/04/08 07:04:11;;;;;;;10.68;1.95;;;3.60;90.30;;;;;;5028769;28;20104;-72
2021/04/08 07:06:37;;;;;;;9.27;1.95;;;3.70;90.00;;;;;;5029034;28;20029;-72
2021/04/08 07:09:05;;;;;;;10.60;1.95;;;3.70;89.90;;;;;;5029431;28;20125;-72
2021/04/08 07:11:32;;;;;;;13.27;3.17;;;3.70;89.90;;;;;;5027723;28;20558;-72
2021/04/08 07:14:00;;;;;;;11.93;2.15;;;3.70;90.20;;;;;;5010949;28;20038;-71
2021/04/08 07:16:25;;;;;;;12.05;1.77;;;3.60;90.40;;;;;;5027770;28;20032;-70
2021/04/08 07:18:53;;;;;;;9.05;1.50;;;3.60;90.90;;;;;;5024686;28;20026;-72
2021/04/08 07:21:20;;;;;;;10.48;1.95;;;3.50;91.40;;;;;;4996899;28;20040;-71
2021/04/08 07:24:21;;;;;;;9.98;1.80;;;3.60;91.50;;;;;;5028318;28;20091;-72
2021/04/08 07:27:04;;;;;;;7.50;1.92;;;3.60;91.30;;;;;;5029155;28;20100;-70
2021/04/08 07:29:39;;;;;;;11.75;2.03;;;3.70;91.00;;;;;;5028118;28;20411;-68
2021/04/08 07:32:10;;;;;;;12.57;2.47;;;3.70;90.90;;;;;;5027109;28;20040;-68
2021/04/08 07:34:37;;;;;;;;;;;3.60;91.10;;;;;;5027384;28;21023;-67
2021/04/08 07:37:04;;;;;;;9.07;1.60;;;3.60;91.30;;;;;;5025271;28;19916;-68
2021/04/08 07:39:44;;;;;;;8.10;2.03;;;3.60;91.50;;;;;;5028235;28;20498;-68
2021/04/08 07:42:12;;;;;;;18.63;2.63;;;3.60;91.40;;;;;;5032430;28;20178;-68
2021/04/08 07:44:46;;;;;;;10.02;2.63;;;3.60;91.40;;;;;;5026200;28;20520;-71
2021/04/08 07:47:40;;;;;;;10.00;2.40;;;3.60;91.10;;;;;;5028450;28;20030;-70
2021/04/08 07:50:11;;;;;;;13.18;2.55;;;3.70;91.10;;;;;;5029825;28;20025;-70
2021/04/08 07:52:37;;;;;;;12.93;2.30;;;3.80;90.90;;;;;;5028228;28;20459;-70
2021/04/08 07:55:10;;;;;;;10.70;2.40;;;3.80;90.90;;;;;;5029182;28;20029;-70
2021/04/08 07:58:02;;;;;;;9.95;2.78;;;3.80;90.90;;;;;;5030211;28;20108;-70
2021/04/08 08:00:36;;;;;;;6.05;1.60;;;3.90;90.70;;;;;;5026812;28;20021;-69
2021/04/08 08:03:08;;;;;;;12.38;2.25;;;3.90;90.20;;;;;;5027305;28;20155;-70
2021/04/08 08:05:37;;;;;;;9.13;1.92;;;3.90;90.50;;;;;;5032069;28;20608;-71
2021/04/08 08:08:16;;;;;;;8.25;1.40;;;4.00;90.20;;;;;;5029041;28;20561;-69
2021/04/08 08:11:03;;;;;;;5.65;1.50;;;4.00;90.00;;;;;;5029810;28;20064;-70
2021/04/08 08:13:32;;;;;;;9.10;2.03;;;4.00;89.50;;;;;;5029282;28;20529;-69
2021/04/08 08:16:01;;;;;;;9.27;1.60;;;4.10;90.10;;;;;;5029160;28;20030;-70
2021/04/08 08:18:40;;;;;;;12.25;2.17;;;4.10;90.10;;;;;;5027936;28;20104;-70
2021/04/08 08:21:09;;;;;;;11.07;1.77;;;4.30;89.20;;;;;;5028150;28;20029;-70
2021/04/08 08:23:37;;;;;;;14.60;2.33;;;4.30;89.40;;;;;;5026513;28;20412;-70
2021/04/08 08:26:25;;;;;;;7.50;1.70;;;4.30;88.20;;;;;;5027163;28;20028;-70
2021/04/08 08:28:52;;;;;;;14.13;2.03;;;4.40;87.50;;;;;;5024024;28;20770;-70
2021/04/08 08:31:39;;;;;;;11.60;2.60;;;4.50;87.60;;;;;;5021337;28;20029;-69
2021/04/08 08:34:08;;;;;;;8.40;1.90;;;4.60;87.10;;;;;;5021373;28;20068;-69
2021/04/08 08:36:36;;;;;;;8.52;1.70;;;4.50;88.10;;;;;;5029473;28;20029;-70
2021/04/08 08:39:06;;;;;;;8.02;2.13;;;4.50;87.80;;;;;;5029389;28;20033;-70
2021/04/08 08:41:32;;;;;;;8.70;2.22;;;4.60;87.20;;;;;;5025654;28;20037;-70
2021/04/08 08:43:59;;;;;;;11.20;2.30;;;4.50;88.20;;;;;;5025289;28;20140;-69
2021/04/08 08:46:26;;;;;;;9.93;2.25;;;4.50;89.10;;;;;;5026197;28;20032;-69
2021/04/08 08:48:53;;;;;;;14.10;2.08;;;4.40;89.60;;;;;;5024340;28;20472;-70
2021/04/08 08:51:21;;;;;;;16.17;2.63;;;4.30;90.30;;;;;;5028991;28;20026;-70
2021/04/08 08:53:49;;;;;;;7.90;1.88;;;4.30;90.50;;;;;;5029761;28;20043;-70
2021/04/08 08:56:15;;;;;;;10.98;2.33;;;4.40;90.30;;;;;;5024420;28;20044;-70
2021/04/08 08:58:41;;;;;;;8.82;2.33;;;4.40;90.50;;;;;;5024218;28;20044;-71
2021/04/08 09:01:07;;;;;;;5.85;1.98;;;4.50;90.10;;;;;;5022980;28;20042;-70
2021/04/08 09:03:34;;;;;;;9.35;1.73;;;4.50;90.30;;;;;;5027189;28;20390;-70
2021/04/08 09:06:05;;;;;;;8.23;1.70;;;4.60;90.00;;;;;;5029437;28;20070;-70
2021/04/08 09:08:32;;;;;;;;;;;4.50;90.10;;;;;;5019314;28;20052;-70
2021/04/08 09:10:58;;;;;;;5.90;1.88;;;4.60;89.70;;;;;;5027293;28;19916;-70
2021/04/08 09:13:23;;;;;;;12.02;1.83;;;4.70;89.70;;;;;;5028134;28;20041;-70
2021/04/08 09:15:49;;;;;;;12.80;1.50;;;4.90;87.90;;;;;;5028484;28;20083;-70
2021/04/08 09:18:20;;;;;;;7.43;1.20;;;5.10;87.70;;;;;;5032607;28;20021;-70
2021/04/08 09:20:47;;;;;;;8.43;1.15;;;5.30;84.20;;;;;;5032286;28;20036;-69
2021/04/08 09:23:14;;;;;;;9.73;1.60;;;5.30;83.30;;;;;;5032339;28;20037;-70
2021/04/08 09:25:53;;;;;;;6.80;1.42;;;5.40;82.50;;;;;;5032434;28;20063;-70
2021/04/08 09:28:19;;;;;;;3.47;1.10;;;5.40;82.20;;;;;;5032034;28;20120;-70
2021/04/08 09:33:42;;;;;;;7.22;1.48;;;5.40;81.00;;;;;;5030533;28;20100;-70
2021/04/08 09:36:20;;;;;;;8.95;1.55;;;5.40;81.40;;;;;;5027726;28;20115;-69
2021/04/08 09:38:47;;;;;;;9.02;1.45;;;5.50;81.40;;;;;;5030074;28;20486;-69
2021/04/08 09:41:13;;;;;;;4.20;1.30;;;5.40;82.00;;;;;;5032789;28;20036;-70
2021/04/08 09:43:39;;;;;;;11.55;1.42;;;5.50;81.20;;;;;;5032617;28;20017;-71
2021/04/08 09:46:10;;;;;;;13.32;1.77;;;5.60;79.50;;;;;;5030892;28;20022;-70
2021/04/08 09:48:46;;;;;;;4.07;1.33;;;5.60;79.80;;;;;;5038515;28;20563;-70
2021/04/08 09:51:38;;;;;;;5.78;0.93;;;5.50;77.50;;;;;;5031681;28;20025;-70
2021/04/08 09:54:10;;;;;;;10.10;1.27;;;5.50;76.20;;;;;;5031012;28;20033;-70
2021/04/08 09:56:52;;;;;;;4.05;1.00;;;5.40;76.70;;;;;;5030445;28;20560;-70
2021/04/08 09:59:18;;;;;;;6.13;1.50;;;5.40;75.70;;;;;;5032454;28;20036;-71
2021/04/08 10:01:44;;;;;;;7.05;1.23;;;5.40;77.40;;;;;;5030374;28;20025;-71
2021/04/08 10:04:17;;;;;;;5.20;1.08;;;5.40;76.30;;;;;;5032099;28;20071;-71
2021/04/08 10:06:44;;;;;;;6.70;1.73;;;5.40;77.30;;;;;;5031784;28;20100;-70
2021/04/08 10:09:12;;;;;;;5.82;1.38;;;5.40;78.20;;;;;;5030021;28;20018;-70
2021/04/08 10:11:38;;;;;;;6.07;1.55;;;5.20;80.90;;;;;;5030962;28;20044;-69
2021/04/08 10:14:21;;;;;;;4.45;1.00;;;5.00;83.40;;;;;;5032474;28;20108;-69
2021/04/08 10:17:18;;;;;;;3.55;0.85;;;4.80;84.50;;;;;;5030422;28;20434;-69
2021/04/08 10:23:33;;;;;;;6.07;0.80;;;4.60;85.50;;;;;;5009945;28;20041;-68
2021/04/08 10:26:01;;;;;;;6.05;0.90;;;4.50;85.20;;;;;;5031017;28;20394;-71
2021/04/08 10:28:38;;;;;;;3.15;0.82;;;4.60;84.80;;;;;;5027093;28;21684;-70
2021/04/08 10:31:16;;;;;;;3.88;1.10;;;4.70;83.70;;;;;;5032479;28;20033;-70
2021/04/08 10:33:42;;;;;;;3.38;0.90;;;4.90;81.80;;;;;;5029805;28;20036;-70
2021/04/08 10:36:26;;;;;;;5.22;0.80;;;4.90;83.30;;;;;;5032023;28;20045;-70
2021/04/08 10:39:26;;;;;;;3.13;0.80;;;5.00;83.20;;;;;;5033052;28;20037;-69
2021/04/08 10:42:07;;;;;;;4.10;1.00;;;5.20;80.80;;;;;;5007767;28;20454;-70
2021/04/08 10:44:44;;;;;;;5.40;0.90;;;5.40;80.00;;;;;;5029634;28;20029;-69
2021/04/08 10:47:17;;;;;;;6.05;2.30;;;5.60;79.10;;;;;;5028843;28;20083;-70
2021/04/08 10:49:44;;;;;;;6.35;1.20;;;5.70;80.10;;;;;;5030450;28;20041;-71
2021/04/08 10:52:21;;;;;;;6.05;0.90;;;5.80;79.10;;;;;;5030077;28;20022;-70
2021/04/08 10:54:54;;;;;;;5.95;1.00;;;5.90;76.90;;;;;;5013632;28;20091;-70
2021/04/08 10:57:22;;;;;;;4.28;1.15;;;6.00;73.90;;;;;;5029923;28;20049;-69
2021/04/08 10:59:49;;;;;;;4.72;1.60;;;6.00;75.30;;;;;;5029976;28;20522;-71
2021/04/08 11:02:24;;;;;;;4.55;1.20;;;5.90;76.30;;;;;;5027000;28;20224;-69
2021/04/08 11:04:51;;;;;;;4.70;1.00;;;6.10;72.10;;;;;;5029791;28;20037;-70
2021/04/08 11:07:17;;;;;;;3.33;0.95;;;6.00;73.20;;;;;;5030901;28;20017;-69
2021/04/08 11:09:43;;;;;;;5.82;1.10;;;6.10;72.30;;;;;;5029928;28;20071;-70
2021/04/08 11:12:26;;;;;;;2.97;0.95;;;6.20;71.30;;;;;;5012907;28;20112;-69
2021/04/08 11:14:57;;;;;;;181.70;74.30;;;6.20;70.20;;;;;;5027160;28;20039;-69
2021/04/08 11:17:24;;;;;;;;;;;6.20;71.50;;;;;;5027469;28;20026;-69
2021/04/08 11:19:52;;;;;;;4.93;1.65;;;6.20;72.10;;;;;;5011433;28;19909;-69
2021/04/08 11:22:20;;;;;;;4.50;1.40;;;6.30;69.30;;;;;;5035115;28;20104;-76
2021/04/08 11:24:48;;;;;;;4.30;0.90;;;6.30;72.20;;;;;;5028242;28;20483;-68
2021/04/08 11:27:23;;;;;;;3.38;1.42;;;6.60;69.40;;;;;;5034385;23;20038;-71
2021/04/08 11:29:51;;;;;;;5.47;0.93;;;6.50;71.50;;;;;;5030964;28;20030;-71
2021/04/08 11:32:17;;;;;;;2.42;0.98;;;6.40;68.50;;;;;;5032377;28;20041;-71
2021/04/08 11:34:47;;;;;;;8.07;1.83;;;6.30;70.20;;;;;;5028879;28;20029;-71
2021/04/08 11:37:16;;;;;;;3.55;1.00;;;6.30;69.30;;;;;;5029927;28;20130;-71
2021/04/08 11:39:43;;;;;;;4.38;1.63;;;6.20;70.70;;;;;;5028393;28;20029;-70
2021/04/08 11:42:18;;;;;;;6.03;1.30;;;6.10;71.00;;;;;;5029662;28;20148;-71
2021/04/08 11:44:44;;;;;;;4.75;1.33;;;6.20;71.90;;;;;;5028646;28;20031;-72
2021/04/08 11:47:16;;;;;;;6.10;1.75;;;6.00;74.20;;;;;;5025678;28;20056;-71
2021/04/08 11:49:44;;;;;;;5.95;1.50;;;5.90;78.10;;;;;;5028424;28;20044;-70
2021/04/08 11:52:12;;;;;;;7.45;1.60;;;5.70;79.60;;;;;;5028414;28;20483;-71
2021/04/08 11:55:16;;;;;;;8.20;1.70;;;5.60;81.10;;;;;;5028295;28;20039;-71
2021/04/08 11:57:54;;;;;;;7.65;2.05;;;5.50;83.00;;;;;;5027564;28;20037;-71
2021/04/08 12:00:27;;;;;;;3.88;1.00;;;5.40;83.10;;;;;;5027103;28;20035;-71
2021/04/08 12:02:53;;;;;;;4.95;0.98;;;5.40;81.90;;;;;;5025341;28;20035;-71
2021/04/08 12:05:21;;;;;;;3.13;1.20;;;5.40;83.30;;;;;;5025545;28;20029;-71
2021/04/08 12:07:50;;;;;;;4.20;1.08;;;5.50;83.10;;;;;;5013571;28;20025;-71
2021/04/08 12:10:26;;;;;;;3.92;1.10;;;5.50;82.60;;;;;;5032393;28;20961;-71
2021/04/08 12:13:01;;;;;;;5.40;1.40;;;5.60;82.20;;;;;;5031936;28;20029;-72
2021/04/08 12:15:41;;;;;;;4.05;1.48;;;5.80;81.80;;;;;;5032081;28;20025;-71
2021/04/08 12:18:17;;;;;;;4.70;1.55;;;5.90;81.20;;;;;;5030977;28;20029;-72
2021/04/08 12:20:44;;;;;;;6.05;1.77;;;6.10;80.40;;;;;;5027974;28;20144;-71
2021/04/08 12:23:14;;;;;;;5.95;1.70;;;6.30;79.10;;;;;;5025403;28;20035;-70
2021/04/08 12:25:49;;;;;;;7.60;1.60;;;6.40;79.70;;;;;;5031774;28;20021;-71
2021/04/08 12:28:15;;;;;;;5.95;1.20;;;6.60;78.90;;;;;;5029193;28;20638;-71
2021/04/08 12:30:59;;;;;;;5.95;1.70;;;6.70;77.20;;;;;;5031320;28;20034;-71
2021/04/08 12:33:36;;;;;;;7.15;1.70;;;6.70;78.60;;;;;;5030521;28;20034;-71
2021/04/08 12:36:12;;;;;;;4.57;1.27;;;6.50;77.30;;;;;;5029440;28;20083;-71
2021/04/08 12:38:38;;;;;;;6.80;1.50;;;6.40;77.80;;;;;;5031841;28;20026;-71
2021/04/08 12:41:06;;;;;;;4.35;1.60;;;6.40;76.90;;;;;;5032563;28;20064;-71
2021/04/08 12:43:33;;;;;;;5.07;1.48;;;6.30;77.20;;;;;;5029742;28;20048;-70
2021/04/08 12:46:00;;;;;;;2.85;1.08;;;6.20;77.70;;;;;;5033452;28;20044;-69
2021/04/08 12:48:26;;;;;;;5.82;1.50;;;6.10;77.30;;;;;;5030506;28;20074;-70
2021/04/08 12:50:53;;;;;;;8.20;1.27;;;6.00;77.80;;;;;;5033445;28;20086;-71
2021/04/08 12:53:21;;;;;;;7.38;1.42;;;6.00;77.40;;;;;;5031105;28;20431;-71
2021/04/08 12:55:47;;;;;;;6.20;1.58;;;6.10;75.50;;;;;;5032799;28;20041;-71
2021/04/08 12:58:14;;;;;;;5.63;1.20;;;6.20;75.60;;;;;;5031106;28;20111;-71
2021/04/08 13:00:40;;;;;;;6.10;1.20;;;6.20;74.20;;;;;;5033845;28;20046;-71
2021/04/08 13:03:10;;;;;;;5.88;1.55;;;6.20;75.00;;;;;;5031121;28;20025;-71
2021/04/08 13:05:37;;;;;;;6.65;1.30;;;6.30;75.60;;;;;;5014184;28;20139;-71
2021/04/08 13:08:04;;;;;;;3.95;1.20;;;6.40;73.70;;;;;;5016217;28;20033;-71
2021/04/08 13:10:31;;;;;;;4.70;1.30;;;6.50;72.90;;;;;;5030780;28;20030;-71
2021/04/08 13:12:56;;;;;;;4.03;1.30;;;6.50;72.20;;;;;;5014777;28;20410;-72